Time;durP1;ratioP1;P1;durP2;ratioP2;P2;SDS_P1;SDS_P2;PMS_P1;PMS_P2;Temp;Humidity;BMP_temperature;BMP_pressure;BME280_temperature;BME280_humidity;BME280_pressure;Samples;Min_cycle;Max_cycle;Signal;HPM_P1;HPM_P2
2023/09/14 00:01:16;;;;;;;0.20;0.20;;;27.80;59.50;;;28.32;44.45;95044.81;5076746;28;20623;-21
2023/09/14 00:03:43;;;;;;;0.30;0.30;;;27.80;59.50;;;28.31;44.82;95045.91;5077261;28;20201;-22
2023/09/14 00:06:11;;;;;;;0.30;0.30;;;27.80;59.50;;;28.28;45.02;95046.47;5077471;28;20631;-21
2023/09/14 00:08:38;;;;;;;0.28;0.28;;;27.80;59.50;;;28.30;44.86;95047.00;5077440;28;20257;-22
2023/09/14 00:11:05;;;;;;;0.30;0.30;;;27.80;59.50;;;28.28;44.85;95046.47;5077820;28;20195;-21
2023/09/14 00:13:32;;;;;;;0.20;0.20;;;27.80;59.50;;;28.30;44.40;95048.91;5076186;28;20234;-22
2023/09/14 00:16:00;;;;;;;0.20;0.20;;;27.80;59.60;;;28.26;45.04;95040.63;5077252;28;20584;-22
2023/09/14 00:18:27;;;;;;;0.30;0.30;;;27.80;59.60;;;28.26;44.52;95036.00;5077581;28;20191;-21
2023/09/14 00:20:57;;;;;;;0.30;0.30;;;27.80;60.60;;;28.26;44.33;95037.91;5077784;28;20512;-23
2023/09/14 00:23:24;;;;;;;0.22;0.22;;;27.80;59.60;;;28.25;44.93;95031.72;5077095;28;20255;-24
2023/09/14 00:25:51;;;;;;;0.30;0.30;;;27.80;59.60;;;28.27;44.93;95034.09;5077139;28;20216;-22
2023/09/14 00:28:18;;;;;;;0.30;0.30;;;27.80;59.60;;;28.30;44.89;95036.19;5077067;28;20200;-22
2023/09/14 00:30:45;;;;;;;0.30;0.30;;;27.80;59.60;;;28.31;44.75;95042.38;5077039;28;20195;-21
2023/09/14 00:33:13;;;;;;;0.30;0.30;;;27.80;59.70;;;28.29;44.67;95040.00;5059503;28;20186;-21
2023/09/14 00:35:40;;;;;;;0.30;0.30;;;27.80;59.60;;;28.26;44.48;95046.00;5076616;28;20202;-21
2023/09/14 00:38:07;;;;;;;0.30;0.30;;;27.80;59.70;;;28.24;44.77;95040.09;5076878;28;20196;-21
2023/09/14 00:40:34;;;;;;;0.30;0.30;;;27.80;59.60;;;28.26;44.95;95043.31;5077127;28;20207;-21
2023/09/14 00:43:01;;;;;;;0.30;0.30;;;27.80;59.60;;;28.23;44.42;95041.19;5075823;28;20534;-21
2023/09/14 00:45:28;;;;;;;0.30;0.30;;;27.80;59.60;;;28.24;44.42;95042.81;5076645;28;20203;-21
2023/09/14 00:47:57;;;;;;;0.30;0.30;;;27.80;59.70;;;28.23;44.93;95042.00;5076964;28;20203;-21
2023/09/14 00:50:26;;;;;;;0.30;0.30;;;27.80;59.70;;;28.21;44.84;95044.22;5076655;28;20189;-23
2023/09/14 00:53:03;;;;;;;0.30;0.30;;;27.80;59.90;;;28.21;44.49;95052.31;5075725;28;20188;-21
2023/09/14 00:55:30;;;;;;;0.40;0.40;;;27.70;59.60;;;28.20;44.66;95045.31;5076136;28;20260;-21
2023/09/14 00:57:58;;;;;;;0.35;0.35;;;27.80;59.80;;;28.21;45.15;95052.31;5059573;28;20195;-22
2023/09/14 01:00:26;;;;;;;0.20;0.20;;;27.80;59.80;;;28.22;44.68;95048.50;5075467;28;20199;-21
2023/09/14 01:02:55;;;;;;;0.30;0.30;;;27.70;59.60;;;28.22;44.97;95056.59;5075412;28;20597;-23
2023/09/14 01:05:28;;;;;;;0.30;0.30;;;27.70;59.60;;;28.19;44.54;95059.09;5076305;28;20271;-22
2023/09/14 01:07:56;;;;;;;0.30;0.30;;;27.70;59.60;;;28.17;44.60;95055.88;5074815;28;20524;-21
2023/09/14 01:10:24;;;;;;;0.40;0.40;;;27.70;59.60;;;28.16;44.99;95059.69;5076217;28;20233;-22
2023/09/14 01:12:51;;;;;;;0.30;0.30;;;27.70;59.60;;;28.13;44.34;95058.38;5076110;28;20318;-22
2023/09/14 01:15:44;;;;;;;0.30;0.30;;;27.70;59.50;;;28.10;44.89;95064.41;5075749;28;20295;-21
2023/09/14 01:18:37;;;;;;;0.30;0.30;;;27.70;59.60;;;28.07;44.52;95073.88;5075177;28;20198;-22
2023/09/14 01:21:45;;;;;;;0.32;0.32;;;27.70;59.70;;;28.07;44.85;95073.88;5076021;28;20239;-22
2023/09/14 01:24:46;;;;;;;0.30;0.30;;;27.60;59.70;;;28.01;45.11;95076.94;5062282;28;20203;-22
2023/09/14 01:27:14;;;;;;;0.35;0.35;;;27.60;59.60;;;28.01;44.52;95075.03;5058724;28;20197;-22
2023/09/14 01:29:42;;;;;;;0.30;0.30;;;27.60;59.70;;;28.01;45.06;95074.25;5058520;28;20201;-22
2023/09/14 01:32:09;;;;;;;0.30;0.30;;;27.60;60.70;;;28.01;44.87;95080.41;5075654;28;20250;-22
2023/09/14 01:34:36;;;;;;;0.30;0.30;;;27.60;59.80;;;28.00;45.29;95075.34;5075893;28;20240;-22
2023/09/14 01:37:05;;;;;;;0.30;0.30;;;27.50;59.90;;;28.00;44.63;95078.03;5074720;28;20216;-22
2023/09/14 01:39:33;;;;;;;0.20;0.20;;;27.50;59.90;;;28.00;44.82;95083.44;5058189;28;20302;-22
2023/09/14 01:42:02;;;;;;;0.30;0.30;;;27.50;59.90;;;27.99;44.94;95085.34;5075265;28;20199;-22
2023/09/14 01:44:29;;;;;;;0.30;0.30;;;27.50;59.90;;;27.99;45.18;95085.34;5074420;28;20203;-22
2023/09/14 01:46:56;;;;;;;0.30;0.30;;;27.50;60.00;;;27.96;44.83;95080.53;5074713;28;20283;-21
2023/09/14 01:49:24;;;;;;;0.30;0.30;;;27.50;60.00;;;27.95;45.28;95079.75;5074572;28;20233;-22
2023/09/14 01:51:52;;;;;;;0.30;0.30;;;27.50;60.00;;;27.96;44.66;95080.53;5074490;28;20220;-22
2023/09/14 01:54:19;;;;;;;0.30;0.30;;;27.50;60.10;;;27.93;45.09;95079.22;5075715;28;20403;-22
2023/09/14 01:56:47;;;;;;;0.30;0.30;;;27.50;60.10;;;27.94;45.16;95077.31;5075650;28;20256;-24
2023/09/14 01:59:14;;;;;;;0.30;0.30;;;27.50;60.10;;;27.95;45.28;95081.63;5074398;28;20205;-22
2023/09/14 02:01:41;;;;;;;0.30;0.30;;;27.50;60.20;;;27.95;44.86;95079.75;5074519;28;20648;-22
2023/09/14 02:04:08;;;;;;;0.30;0.30;;;27.50;60.20;;;27.94;45.04;95075.44;5091193;28;20297;-23
2023/09/14 02:06:36;;;;;;;0.30;0.30;;;27.50;60.10;;;27.94;45.12;95080.00;5074174;28;20230;-22
2023/09/14 02:09:04;;;;;;;0.30;0.30;;;27.40;60.10;;;27.93;44.74;95070.34;5074234;28;20625;-22
2023/09/14 02:11:31;;;;;;;0.40;0.40;;;27.50;60.20;;;27.92;44.95;95072.22;5075167;28;20195;-22
2023/09/14 02:13:58;;;;;;;0.30;0.30;;;27.50;60.10;;;27.93;45.44;95075.75;5074045;28;20262;-22
2023/09/14 02:16:25;;;;;;;0.30;0.30;;;27.40;60.10;;;27.92;45.53;95071.44;5074026;28;20203;-22
2023/09/14 02:18:53;;;;;;;0.30;0.30;;;27.40;60.10;;;27.91;45.34;95072.53;5073266;28;20201;-22
2023/09/14 02:21:20;;;;;;;0.30;0.30;;;27.40;60.10;;;27.90;45.30;95073.63;5074086;28;20230;-22
2023/09/14 02:23:47;;;;;;;0.30;0.30;;;27.40;60.20;;;27.90;45.03;95073.63;5074060;28;20709;-23
2023/09/14 02:26:15;;;;;;;0.30;0.30;;;27.40;60.20;;;27.90;44.95;95073.63;5074017;28;20221;-22
2023/09/14 02:28:42;;;;;;;0.30;0.30;;;27.40;60.20;;;27.88;44.98;95071.25;5074030;28;20633;-23
2023/09/14 02:31:10;;;;;;;0.30;0.30;;;27.40;60.20;;;27.88;45.17;95073.13;5073831;28;20617;-23
2023/09/14 02:33:38;;;;;;;0.40;0.40;;;27.40;60.20;;;27.86;44.93;95078.81;5075251;28;20494;-22
2023/09/14 02:36:06;;;;;;;0.30;0.30;;;27.40;60.20;;;27.86;44.96;95076.13;5074446;28;20512;-22
2023/09/14 02:38:33;;;;;;;0.28;0.28;;;27.40;60.20;;;27.84;45.13;95078.31;5090717;28;20201;-22
2023/09/14 02:41:00;;;;;;;0.30;0.30;;;27.40;60.20;;;27.83;45.09;95082.13;5073870;28;20594;-22
2023/09/14 02:43:27;;;;;;;0.32;0.32;;;27.40;60.20;;;27.82;45.56;95072.44;5073909;28;20218;-21
2023/09/14 02:45:55;;;;;;;0.30;0.30;;;27.40;60.20;;;27.82;45.06;95074.31;5073649;28;20274;-22
2023/09/14 02:48:22;;;;;;;0.30;0.30;;;27.40;60.30;;;27.82;45.63;95075.13;5074797;28;20203;-22
2023/09/14 02:50:49;;;;;;;0.20;0.20;;;27.40;60.20;;;27.82;45.61;95074.31;5075587;28;20200;-22
2023/09/14 02:53:16;;;;;;;0.30;0.30;;;27.40;60.30;;;27.82;45.20;95083.22;5057222;28;20640;-23
2023/09/14 02:55:43;;;;;;;0.20;0.20;;;27.40;60.30;;;27.82;45.29;95072.44;5090410;28;20221;-22
2023/09/14 02:58:11;;;;;;;0.30;0.30;;;27.40;60.30;;;27.82;45.53;95069.75;5073705;28;20633;-23
2023/09/14 03:00:39;;;;;;;0.40;0.40;;;27.40;60.30;;;27.82;45.45;95079.72;5057192;28;20239;-22
2023/09/14 03:03:09;;;;;;;0.20;0.20;;;27.40;61.30;;;27.81;45.38;95073.53;5074901;28;20191;-22
2023/09/14 03:05:39;;;;;;;0.30;0.30;;;27.40;60.30;;;27.84;45.38;95088.31;5041255;28;20280;-22
2023/09/14 03:08:06;;;;;;;0.30;0.30;;;27.40;60.30;;;27.83;45.40;95078.63;5073630;28;20637;-22
2023/09/14 03:10:34;;;;;;;0.38;0.38;;;27.40;60.30;;;27.83;45.71;95082.13;5073591;28;20195;-22
2023/09/14 03:13:01;;;;;;;0.30;0.30;;;27.40;60.20;;;27.84;45.06;95088.31;5056989;28;20234;-22
2023/09/14 03:15:28;;;;;;;0.30;0.30;;;27.40;60.30;;;27.86;45.17;95091.50;5073464;28;20210;-22
2023/09/14 03:17:56;;;;;;;0.30;0.30;;;27.40;60.30;;;27.84;45.68;95091.00;5090376;28;20202;-22
2023/09/14 03:20:23;;;;;;;0.30;0.30;;;27.40;60.30;;;27.85;45.59;95084.50;5074169;28;20280;-22
2023/09/14 03:22:50;;;;;;;0.20;0.20;;;27.40;60.20;;;27.86;45.08;95086.13;5073494;28;20199;-21
2023/09/14 03:25:17;;;;;;;0.30;0.30;;;27.40;60.20;;;27.85;45.53;95082.59;5073216;28;20221;-22
2023/09/14 03:27:45;;;;;;;0.30;0.30;;;27.40;60.20;;;27.88;45.35;95089.28;5073458;28;20228;-22
2023/09/14 03:30:12;;;;;;;0.32;0.32;;;27.50;60.30;;;27.88;45.07;95083.91;5074063;28;20199;-23
2023/09/14 03:32:40;;;;;;;0.30;0.30;;;27.50;60.30;;;27.87;45.61;95085.81;5094195;28;20191;-22
2023/09/14 03:35:07;;;;;;;0.30;0.30;;;27.50;60.30;;;27.88;45.71;95092.81;5078115;28;20195;-22
2023/09/14 03:37:35;;;;;;;0.30;0.30;;;27.50;60.30;;;27.87;44.86;95096.59;5077103;28;20209;-22
2023/09/14 03:40:08;;;;;;;0.30;0.30;;;27.50;60.20;;;27.86;45.07;95105.00;5077006;28;20244;-22
2023/09/14 03:42:37;;;;;;;0.32;0.32;;;27.40;60.20;;;27.84;45.44;95107.16;5077042;28;20293;-22
2023/09/14 03:45:05;;;;;;;0.30;0.30;;;27.50;60.20;;;27.85;44.82;95106.09;5076806;28;20253;-22
2023/09/14 03:47:33;;;;;;;0.30;0.30;;;27.40;60.10;;;27.83;45.31;95113.66;5078340;28;20245;-22
2023/09/14 03:50:00;;;;;;;0.30;0.30;;;27.40;60.20;;;27.81;45.17;95111.25;5060402;28;20533;-22
2023/09/14 03:52:27;;;;;;;0.30;0.30;;;27.40;60.10;;;27.81;45.11;95116.66;5078301;28;20220;-22
2023/09/14 03:54:54;;;;;;;0.30;0.30;;;27.40;60.20;;;27.78;45.70;95112.66;5077618;28;20673;-22
2023/09/14 03:57:21;;;;;;;0.30;0.30;;;27.40;60.20;;;27.79;45.69;95125.03;5078151;28;20224;-22
2023/09/14 03:59:48;;;;;;;0.30;0.30;;;27.40;60.30;;;27.82;45.22;95128.22;5076923;28;20215;-22
2023/09/14 04:02:16;;;;;;;0.30;0.30;;;27.40;60.30;;;27.79;45.13;95122.34;5077275;28;20201;-22
2023/09/14 04:04:44;;;;;;;0.20;0.20;;;27.40;60.30;;;27.81;45.19;95132.81;5076560;28;20610;-22
2023/09/14 04:07:12;;;;;;;0.30;0.30;;;27.40;60.30;;;27.82;45.26;95128.22;5077256;28;20549;-22
2023/09/14 04:09:41;;;;;;;0.30;0.30;;;27.40;60.20;;;27.80;45.18;95126.63;5077399;28;20196;-22
2023/09/14 04:12:09;;;;;;;0.30;0.30;;;27.40;60.30;;;27.81;45.73;95127.44;5077462;28;20233;-24
2023/09/14 04:14:37;;;;;;;0.30;0.30;;;27.40;60.30;;;27.82;45.27;95129.03;5076426;28;20600;-22
2023/09/14 04:17:04;;;;;;;0.30;0.30;;;27.40;60.30;;;27.80;45.28;95128.53;5076185;28;20236;-21
2023/09/14 04:19:31;;;;;;;0.30;0.30;;;27.40;60.30;;;27.80;45.51;95137.41;5076308;28;20312;-21
2023/09/14 04:21:59;;;;;;;0.20;0.20;;;27.40;60.30;;;27.81;45.52;95132.81;5077500;28;20235;-22
2023/09/14 04:24:27;;;;;;;0.20;0.20;;;27.40;60.30;;;27.84;45.61;95142.22;5076914;28;20205;-21
2023/09/14 04:26:55;;;;;;;0.30;0.30;;;27.40;60.30;;;27.83;45.24;95146.81;5076639;28;20225;-22
2023/09/14 04:29:22;;;;;;;0.38;0.38;;;27.40;60.20;;;27.84;45.82;95140.31;5077605;28;20201;-21
2023/09/14 04:31:49;;;;;;;0.40;0.40;;;27.40;60.20;;;27.83;45.91;95144.13;5092907;28;20647;-22
2023/09/14 04:34:16;;;;;;;0.30;0.30;;;27.40;60.30;;;27.84;45.55;95140.31;5076076;28;20204;-22
2023/09/14 04:36:44;;;;;;;0.30;0.30;;;27.50;60.30;;;27.84;45.53;95139.53;5076297;28;20267;-22
2023/09/14 04:39:12;;;;;;;0.30;0.30;;;27.50;60.30;;;27.85;45.18;95147.31;5075906;28;20206;-22
2023/09/14 04:41:40;;;;;;;0.30;0.30;;;27.50;60.30;;;27.85;45.28;95144.59;5075466;28;20231;-22
2023/09/14 04:44:08;;;;;;;0.32;0.32;;;27.50;60.30;;;27.86;45.18;95154.28;5075765;28;20291;-22
2023/09/14 04:46:35;;;;;;;0.30;0.30;;;27.50;60.20;;;27.87;45.09;95147.00;5077020;28;20246;-22
2023/09/14 04:49:03;;;;;;;0.35;0.35;;;27.50;60.20;;;27.89;45.56;95152.91;5075712;28;20194;-22
2023/09/14 04:51:30;;;;;;;0.30;0.30;;;27.50;60.20;;;27.87;45.14;95147.00;5075723;28;20209;-22
2023/09/14 04:53:58;;;;;;;0.22;0.22;;;27.50;60.10;;;27.87;45.61;95158.59;5092548;28;20271;-22
2023/09/14 04:56:26;;;;;;;0.30;0.30;;;27.50;60.20;;;27.87;45.14;95158.59;5059191;28;20206;-22
2023/09/14 04:58:53;;;;;;;0.32;0.32;;;27.50;60.20;;;27.90;45.58;95162.59;5092371;28;20299;-22
2023/09/14 05:01:21;;;;;;;0.40;0.40;;;27.50;60.10;;;27.88;45.65;95170.97;5075664;28;20212;-22
2023/09/14 05:03:49;;;;;;;0.22;0.22;;;27.50;60.20;;;27.88;45.61;95164.78;5075464;28;20624;-21
2023/09/14 05:06:16;;;;;;;0.38;0.38;;;27.50;60.10;;;27.87;45.01;95168.56;5076236;28;20665;-21
2023/09/14 05:08:43;;;;;;;0.30;0.30;;;27.50;60.10;;;27.90;45.63;95173.38;5075395;28;20209;-22
2023/09/14 05:11:11;;;;;;;0.30;0.30;;;27.50;60.20;;;27.90;44.94;95176.84;5092150;28;20298;-22
2023/09/14 05:13:38;;;;;;;0.30;0.30;;;27.50;60.10;;;27.89;45.71;95180.69;5058539;28;20655;-22
2023/09/14 05:16:05;;;;;;;0.30;0.30;;;27.50;60.10;;;27.88;45.56;95179.06;5075128;28;20629;-22
2023/09/14 05:18:34;;;;;;;0.30;0.30;;;27.50;60.10;;;27.90;44.90;95181.47;5092024;28;20241;-21
2023/09/14 05:21:01;;;;;;;0.30;0.30;;;27.50;60.00;;;27.91;45.03;95188.47;5076606;28;20250;-22
2023/09/14 05:23:28;;;;;;;0.40;0.40;;;27.50;60.10;;;27.90;45.41;95182.25;5058539;28;20639;-22
2023/09/14 05:25:55;;;;;;;0.30;0.30;;;27.50;60.10;;;27.90;45.49;95182.25;5075723;28;20218;-21
2023/09/14 05:28:22;;;;;;;0.20;0.20;;;27.50;60.10;;;27.89;45.02;95179.84;5058461;28;20571;-22
2023/09/14 05:30:50;;;;;;;0.30;0.30;;;27.50;60.00;;;27.89;45.21;95183.38;5058563;28;20292;-21
2023/09/14 05:33:18;;;;;;;0.30;0.30;;;27.60;60.10;;;27.90;45.50;95190.34;5075205;28;20200;-22
2023/09/14 05:35:48;;;;;;;0.30;0.30;;;27.60;60.10;;;27.90;44.84;95186.84;5074772;28;20296;-22
2023/09/14 05:38:16;;;;;;;0.30;0.30;;;27.60;60.10;;;27.88;45.42;95189.84;5075182;28;20196;-22
2023/09/14 05:40:43;;;;;;;0.20;0.20;;;27.60;60.10;;;27.89;45.44;95196.84;5076192;28;20211;-22
2023/09/14 05:43:10;;;;;;;0.30;0.30;;;27.60;60.10;;;27.89;45.55;95204.94;5074671;28;20206;-22
2023/09/14 05:45:40;;;;;;;0.20;0.20;;;27.60;60.10;;;27.91;45.59;95202.72;5075664;28;20228;-22
2023/09/14 05:48:07;;;;;;;0.30;0.30;;;27.50;60.00;;;27.91;45.51;95204.63;5074627;28;20203;-22
2023/09/14 05:50:35;;;;;;;0.20;0.20;;;27.60;60.10;;;27.91;45.42;95207.34;5074549;28;20338;-22
2023/09/14 05:53:03;;;;;;;0.30;0.30;;;27.60;60.10;;;27.90;45.04;95208.41;5058104;28;20206;-23
2023/09/14 05:55:31;;;;;;;0.30;0.30;;;27.50;60.00;;;27.90;44.93;95205.72;5074866;28;20196;-22
2023/09/14 05:57:58;;;;;;;0.30;0.30;;;27.60;60.10;;;27.91;44.89;95210.81;5075129;28;20287;-21
2023/09/14 06:00:25;;;;;;;0.20;0.20;;;27.60;60.10;;;27.90;44.97;95217.28;5074360;28;20524;-22
2023/09/14 06:02:55;;;;;;;0.30;0.30;;;27.60;60.10;;;27.90;45.40;95220.00;5074335;28;20199;-23
2023/09/14 06:05:22;;;;;;;0.30;0.30;;;27.60;60.10;;;27.91;45.40;95224.28;5074241;28;20216;-22
2023/09/14 06:07:53;;;;;;;0.30;0.30;;;27.60;60.10;;;27.91;45.28;95227.00;5074123;28;20300;-21
2023/09/14 06:10:21;;;;;;;0.30;0.30;;;27.60;60.10;;;27.91;44.88;95220.81;5074239;28;20205;-22
2023/09/14 06:12:50;;;;;;;0.30;0.30;;;27.60;60.10;;;27.91;45.42;95227.00;5057536;28;20226;-23
2023/09/14 06:15:17;;;;;;;0.20;0.20;;;27.60;60.00;;;27.90;45.22;95230.78;5074329;28;20190;-22
2023/09/14 06:17:47;;;;;;;0.30;0.30;;;27.60;60.00;;;27.92;45.31;95238.59;5075172;28;20514;-22
2023/09/14 06:20:15;;;;;;;0.30;0.30;;;27.60;60.00;;;27.90;45.42;95238.06;5075370;28;20192;-23
2023/09/14 06:22:42;;;;;;;0.20;0.20;;;27.60;60.00;;;27.90;45.23;95233.47;5074083;28;20209;-21
2023/09/14 06:25:09;;;;;;;0.30;0.30;;;27.60;60.00;;;27.89;45.38;95231.91;5075015;28;20207;-23
2023/09/14 06:27:36;;;;;;;0.30;0.30;;;27.60;60.00;;;27.91;45.04;95236.97;5074992;28;20659;-21
2023/09/14 06:30:04;;;;;;;0.30;0.30;;;27.60;60.00;;;27.90;45.45;95238.88;5075522;28;20188;-22
2023/09/14 06:32:31;;;;;;;0.30;0.30;;;27.60;60.00;;;27.91;45.25;95243.16;5075511;28;20200;-21
2023/09/14 06:34:59;;;;;;;0.30;0.30;;;27.60;60.00;;;27.91;45.29;95251.25;5075417;28;20190;-22
2023/09/14 06:37:26;;;;;;;0.20;0.20;;;27.60;60.10;;;27.92;45.23;95252.06;5075030;28;20308;-21
2023/09/14 06:39:57;;;;;;;0.30;0.30;;;27.60;60.00;;;27.92;44.94;95257.47;5075200;28;20183;-22
2023/09/14 06:42:24;;;;;;;0.30;0.30;;;27.50;59.90;;;27.92;44.85;95257.47;5074846;28;20252;-22
2023/09/14 06:44:51;;;;;;;0.30;0.30;;;27.60;60.00;;;27.92;44.96;95255.56;5074817;28;20261;-22
2023/09/14 06:47:18;;;;;;;0.30;0.30;;;27.60;60.00;;;27.92;44.80;95262.84;5074606;28;20309;-22
2023/09/14 06:49:45;;;;;;;0.30;0.30;;;27.60;60.00;;;27.91;45.12;95267.44;5075057;28;20270;-22
2023/09/14 06:52:12;;;;;;;0.30;0.30;;;27.60;60.00;;;27.90;45.46;95265.03;5057173;28;20200;-22
2023/09/14 06:54:39;;;;;;;0.30;0.30;;;27.60;60.00;;;27.89;45.08;95266.94;5074894;28;20183;-23
2023/09/14 06:57:07;;;;;;;0.20;0.20;;;27.60;60.00;;;27.90;44.97;95268.50;5075233;28;20200;-22
2023/09/14 06:59:34;;;;;;;0.30;0.30;;;27.60;60.00;;;27.92;45.40;95279.03;5075002;28;20596;-22
2023/09/14 07:02:02;;;;;;;0.30;0.30;;;27.60;60.00;;;27.91;45.23;95277.41;5075223;28;20195;-22
2023/09/14 07:04:30;;;;;;;0.30;0.30;;;27.60;60.90;;;27.90;45.23;95275.81;5074622;28;20267;-22
2023/09/14 07:06:57;;;;;;;0.28;0.28;;;27.60;60.00;;;27.89;45.24;95280.41;5078192;28;20225;-21
2023/09/14 07:09:24;;;;;;;0.30;0.30;;;27.60;60.00;;;27.89;45.08;95275.03;5078512;28;20540;-22
2023/09/14 07:11:52;;;;;;;0.30;0.30;;;27.50;60.00;;;27.91;44.90;95280.91;5078372;28;20192;-21
2023/09/14 07:14:19;;;;;;;0.30;0.30;;;27.50;60.00;;;27.90;45.02;95284.69;5078657;28;20180;-23
2023/09/14 07:16:46;;;;;;;0.30;0.30;;;27.60;60.10;;;27.91;45.31;95280.13;5078535;28;20202;-21
2023/09/14 07:19:13;;;;;;;0.20;0.20;;;27.60;60.00;;;27.92;44.91;95284.41;5078411;28;20228;-22
2023/09/14 07:21:41;;;;;;;0.22;0.22;;;27.60;60.00;;;27.92;45.50;95277.13;5078671;28;20198;-22
2023/09/14 07:24:09;;;;;;;0.30;0.30;;;27.60;60.10;;;27.93;45.49;95284.13;5094275;28;20220;-22
2023/09/14 07:26:38;;;;;;;0.30;0.30;;;27.60;60.00;;;27.92;45.25;95282.50;5078395;28;20238;-22
2023/09/14 07:29:05;;;;;;;0.20;0.20;;;27.60;60.00;;;27.94;44.95;95285.72;5078198;28;20652;-22
2023/09/14 07:31:34;;;;;;;0.20;0.20;;;27.60;60.00;;;27.95;45.29;95287.34;5078129;28;20253;-22
2023/09/14 07:34:02;;;;;;;0.30;0.30;;;27.60;60.00;;;27.96;45.51;95291.63;5077567;28;20198;-22
2023/09/14 07:36:29;;;;;;;0.20;0.20;;;27.60;60.00;;;28.00;45.16;95294.50;5078230;28;20196;-22
2023/09/14 07:38:56;;;;;;;0.30;0.30;;;27.60;60.00;;;27.99;45.39;95290.25;5078162;28;20243;-22
2023/09/14 07:41:26;;;;;;;0.30;0.30;;;27.60;60.10;;;28.04;44.97;95298.25;5078552;28;20645;-24
2023/09/14 07:43:54;;;;;;;0.30;0.30;;;27.60;60.10;;;28.04;44.95;95295.53;5078251;28;20232;-22
2023/09/14 07:46:21;;;;;;;0.20;0.20;;;27.70;60.10;;;28.07;44.94;95296.88;5077942;28;20233;-22
2023/09/14 07:48:48;;;;;;;0.30;0.30;;;27.70;60.10;;;28.07;44.96;95294.19;5076841;28;20199;-22
2023/09/14 07:51:15;;;;;;;0.30;0.30;;;27.70;60.10;;;28.09;44.96;95303.59;5077811;28;20224;-21
2023/09/14 07:53:42;;;;;;;0.30;0.30;;;27.70;60.00;;;28.10;44.96;95301.69;5078050;28;20186;-22
2023/09/14 07:56:09;;;;;;;0.30;0.30;;;27.70;60.10;;;28.09;45.01;95300.88;5077683;28;20200;-21
2023/09/14 07:58:36;;;;;;;0.30;0.30;;;27.70;60.00;;;28.11;44.87;95305.97;5078289;28;20280;-22
2023/09/14 08:01:04;;;;;;;0.30;0.30;;;27.70;59.90;;;28.11;44.72;95297.88;5077729;28;20268;-22
2023/09/14 08:03:31;;;;;;;0.30;0.30;;;27.70;60.00;;;28.12;45.35;95291.41;5076864;28;20196;-22
2023/09/14 08:05:59;;;;;;;0.30;0.30;;;27.70;60.00;;;28.10;45.01;95293.59;5077452;28;20208;-22
2023/09/14 08:08:26;;;;;;;0.30;0.30;;;27.80;60.00;;;28.10;44.78;95291.69;5076514;28;20253;-23
2023/09/14 08:10:55;;;;;;;0.30;0.30;;;27.70;59.90;;;28.13;45.23;95294.91;5077664;28;20214;-22
2023/09/14 08:13:23;;;;;;;0.22;0.22;;;27.70;60.80;;;28.16;45.30;95283.53;5077377;28;20236;-22
2023/09/14 08:15:50;;;;;;;0.30;0.30;;;27.70;59.90;;;28.16;45.23;95289.72;5077354;28;20187;-22
2023/09/14 08:18:19;;;;;;;0.20;0.20;;;27.80;60.00;;;28.19;44.85;95291.03;5076682;28;20738;-22
2023/09/14 08:20:49;;;;;;;0.30;0.30;;;27.80;60.00;;;28.20;45.41;95295.34;5077557;28;20572;-23
2023/09/14 08:23:16;;;;;;;0.30;0.30;;;27.80;60.10;;;28.18;45.20;95295.63;5077534;28;20196;-22
2023/09/14 08:25:47;;;;;;;0.25;0.25;;;27.80;60.10;;;28.18;45.29;95300.22;5077139;28;20202;-22
2023/09/14 08:28:17;;;;;;;0.30;0.30;;;27.80;60.00;;;28.20;44.82;95300.72;5076968;28;20269;-22
2023/09/14 08:30:45;;;;;;;0.30;0.30;;;27.80;59.90;;;28.20;45.04;95298.81;5077182;28;20255;-22
2023/09/14 08:33:12;;;;;;;0.30;0.30;;;27.80;59.90;;;28.21;44.84;95299.63;5077041;28;20284;-23
2023/09/14 08:35:40;;;;;;;0.30;0.30;;;27.80;59.90;;;28.22;44.95;95301.22;5076378;28;20192;-22
2023/09/14 08:38:07;;;;;;;0.30;0.30;;;27.80;59.90;;;28.24;44.72;95299.81;5075880;28;20234;-22
2023/09/14 08:40:38;;;;;;;0.30;0.30;;;27.90;60.00;;;28.24;44.99;95302.53;5077423;28;20224;-23
2023/09/14 08:43:11;;;;;;;0.30;0.30;;;27.90;59.90;;;28.26;45.02;95308.44;5076338;28;20196;-22
2023/09/14 08:45:39;;;;;;;0.30;0.30;;;27.90;59.90;;;28.27;44.88;95312.72;5076276;28;20186;-22
2023/09/14 08:48:08;;;;;;;0.22;0.22;;;27.90;59.90;;;28.27;45.14;95307.34;5076678;28;20206;-22
2023/09/14 08:50:39;;;;;;;0.40;0.40;;;27.90;60.00;;;28.30;44.65;95314.03;5075760;28;20201;-22
2023/09/14 08:53:06;;;;;;;0.20;0.20;;;27.90;59.90;;;28.32;45.10;95316.44;5076875;28;20276;-22
2023/09/14 08:55:35;;;;;;;0.30;0.30;;;28.00;60.00;;;28.35;44.88;95321.25;5075783;28;20202;-22
2023/09/14 08:58:03;;;;;;;0.30;0.30;;;27.90;59.90;;;28.37;45.29;95327.94;5076713;28;20342;-22
2023/09/14 09:00:31;;;;;;;0.30;0.30;;;28.00;59.90;;;28.38;44.73;95326.84;5076545;28;20258;-22
2023/09/14 09:02:59;;;;;;;0.30;0.30;;;28.00;59.90;;;28.39;44.85;95324.94;5059264;28;20272;-22
2023/09/14 09:05:27;;;;;;;0.30;0.30;;;28.00;60.80;;;28.42;44.65;95333.25;5075544;28;20229;-22
2023/09/14 09:07:56;;;;;;;0.20;0.20;;;28.00;59.90;;;28.43;45.18;95325.97;5075488;28;20234;-22
2023/09/14 09:10:27;;;;;;;0.30;0.30;;;28.00;60.80;;;28.43;45.27;95320.59;5076321;28;20274;-22
2023/09/14 09:13:01;;;;;;;0.20;0.20;;;28.00;59.80;;;28.44;44.98;95316.75;5076224;28;20267;-22
2023/09/14 09:15:36;;;;;;;0.30;0.30;;;28.00;59.70;;;28.46;44.48;95321.88;5075327;28;20196;-22
2023/09/14 09:18:10;;;;;;;0.30;0.30;;;28.10;59.80;;;28.46;45.08;95329.97;5076667;28;20188;-23
2023/09/14 09:20:40;;;;;;;0.30;0.30;;;28.10;59.70;;;28.46;45.06;95324.59;5076168;28;20195;-22
2023/09/14 09:23:08;;;;;;;0.20;0.20;;;28.10;59.70;;;28.50;45.11;95320.19;5076280;28;20581;-22
2023/09/14 09:25:48;;;;;;;0.20;0.20;;;28.10;59.70;;;28.49;44.70;95322.09;5076525;28;20199;-22
2023/09/14 09:28:15;;;;;;;0.30;0.30;;;28.10;59.80;;;28.51;45.00;95319.88;5075568;28;20209;-22
2023/09/14 09:30:44;;;;;;;0.30;0.30;;;28.10;59.60;;;28.52;45.13;95316.09;5075969;28;20189;-22
2023/09/14 09:33:12;;;;;;;0.30;0.30;;;28.10;59.60;;;28.54;45.07;95313.91;5076128;28;20196;-22
2023/09/14 09:35:39;;;;;;;0.20;0.20;;;28.10;59.60;;;28.55;45.10;95315.50;5075774;28;20532;-22
2023/09/14 09:38:16;;;;;;;0.30;0.30;;;28.10;59.70;;;28.57;44.34;95320.59;5075672;28;20209;-22
2023/09/14 09:40:45;;;;;;;0.20;0.20;;;28.10;59.50;;;28.56;44.44;95314.41;5058831;28;20211;-22
2023/09/14 09:43:19;;;;;;;0.30;0.30;;;28.10;59.50;;;28.57;44.39;95317.91;5075661;28;20198;-22
2023/09/14 09:45:47;;;;;;;0.30;0.30;;;28.20;59.50;;;28.59;44.32;95323.81;5058695;28;20179;-22
2023/09/14 09:48:15;;;;;;;0.30;0.30;;;28.20;59.50;;;28.59;44.54;95321.91;5075383;28;20223;-22
2023/09/14 09:50:43;;;;;;;0.30;0.30;;;28.20;59.50;;;28.62;44.26;95323.19;5075495;28;20189;-22
2023/09/14 09:53:12;;;;;;;0.20;0.20;;;28.20;59.50;;;28.64;44.32;95329.13;5074622;28;20203;-22
2023/09/14 09:55:39;;;;;;;0.30;0.30;;;28.20;59.40;;;28.66;44.40;95329.63;5074818;28;20220;-22
2023/09/14 09:58:07;;;;;;;0.35;0.35;;;28.20;59.40;;;28.67;44.20;95330.41;5074578;28;20271;-22
2023/09/14 10:00:37;;;;;;;0.20;0.20;;;28.20;59.40;;;28.68;44.29;95315.81;5075912;28;20205;-22
2023/09/14 10:03:06;;;;;;;0.20;0.20;;;28.30;59.50;;;28.70;44.19;95319.84;5075468;28;20221;-22
2023/09/14 10:05:51;;;;;;;0.20;0.20;;;28.30;59.40;;;28.71;44.24;95316.06;5075543;28;20259;-22
2023/09/14 10:08:21;;;;;;;0.30;0.30;;;28.30;59.40;;;28.73;44.77;95324.69;5074395;28;20254;-23
2023/09/14 10:10:51;;;;;;;0.30;0.30;;;28.30;59.40;;;28.76;44.66;95325.97;5074498;28;20194;-23
2023/09/14 10:13:21;;;;;;;0.20;0.20;;;28.30;59.40;;;28.78;44.69;95325.66;5057753;28;20230;-22
2023/09/14 10:15:53;;;;;;;0.30;0.30;;;28.30;59.30;;;28.78;44.26;95326.47;5075448;28;20242;-22
2023/09/14 10:18:22;;;;;;;0.30;0.30;;;28.30;59.30;;;28.80;44.05;95328.88;5075132;28;20258;-22
2023/09/14 10:20:51;;;;;;;0.30;0.30;;;28.40;59.40;;;28.80;44.58;95329.66;5075063;28;20189;-22
2023/09/14 10:23:20;;;;;;;0.30;0.30;;;28.40;59.40;;;28.83;44.14;95331.78;5075062;28;20217;-22
2023/09/14 10:25:50;;;;;;;0.20;0.20;;;28.40;59.30;;;28.85;44.68;95332.25;5075061;28;20190;-22